sensor_id;sensor_type;location;lat;lon;timestamp;P1;durP1;ratioP1;P2;durP2;ratioP2
21943;SDS011;11136;48.778;9.126;2023-11-18T00:01:31;2.88;;;2.45;;
21943;SDS011;11136;48.778;9.126;2023-11-18T00:03:58;2.85;;;2.35;;
21943;SDS011;11136;48.778;9.126;2023-11-18T00:06:23;3.03;;;2.63;;
21943;SDS011;11136;48.778;9.126;2023-11-18T00:08:48;4.60;;;3.20;;
21943;SDS011;11136;48.778;9.126;2023-11-18T00:11:14;3.15;;;2.58;;
21943;SDS011;11136;48.778;9.126;2023-11-18T00:13:40;3.53;;;2.00;;
21943;SDS011;11136;48.778;9.126;2023-11-18T00:16:07;3.85;;;2.65;;
21943;SDS011;11136;48.778;9.126;2023-11-18T00:18:40;2.85;;;2.40;;
21943;SDS011;11136;48.778;9.126;2023-11-18T00:21:06;3.55;;;2.63;;
21943;SDS011;11136;48.778;9.126;2023-11-18T00:23:32;2.72;;;2.30;;
21943;SDS011;11136;48.778;9.126;2023-11-18T00:25:58;3.05;;;2.45;;
21943;SDS011;11136;48.778;9.126;2023-11-18T00:28:23;3.42;;;2.40;;
21943;SDS011;11136;48.778;9.126;2023-11-18T00:30:49;5.13;;;3.38;;
21943;SDS011;11136;48.778;9.126;2023-11-18T00:33:14;7.88;;;2.80;;
21943;SDS011;11136;48.778;9.126;2023-11-18T00:35:40;5.88;;;3.28;;
21943;SDS011;11136;48.778;9.126;2023-11-18T00:38:06;3.30;;;2.60;;
21943;SDS011;11136;48.778;9.126;2023-11-18T00:40:31;3.83;;;2.92;;
21943;SDS011;11136;48.778;9.126;2023-11-18T00:42:56;3.63;;;3.00;;
21943;SDS011;11136;48.778;9.126;2023-11-18T00:45:22;3.50;;;3.17;;
21943;SDS011;11136;48.778;9.126;2023-11-18T00:47:48;7.38;;;3.22;;
21943;SDS011;11136;48.778;9.126;2023-11-18T00:50:13;7.97;;;2.83;;
21943;SDS011;11136;48.778;9.126;2023-11-18T00:52:39;3.17;;;2.60;;
21943;SDS011;11136;48.778;9.126;2023-11-18T00:55:06;3.75;;;3.25;;
21943;SDS011;11136;48.778;9.126;2023-11-18T00:57:33;4.45;;;3.40;;
21943;SDS011;11136;48.778;9.126;2023-11-18T00:59:58;5.72;;;3.53;;
21943;SDS011;11136;48.778;9.126;2023-11-18T01:02:23;4.07;;;3.15;;
21943;SDS011;11136;48.778;9.126;2023-11-18T01:04:49;4.15;;;3.15;;
21943;SDS011;11136;48.778;9.126;2023-11-18T01:07:15;3.60;;;3.17;;
21943;SDS011;11136;48.778;9.126;2023-11-18T01:09:41;3.83;;;3.17;;
21943;SDS011;11136;48.778;9.126;2023-11-18T01:12:06;4.35;;;3.25;;
21943;SDS011;11136;48.778;9.126;2023-11-18T01:14:35;4.93;;;3.35;;
21943;SDS011;11136;48.778;9.126;2023-11-18T01:17:01;3.28;;;2.80;;
21943;SDS011;11136;48.778;9.126;2023-11-18T01:19:26;4.97;;;3.42;;
21943;SDS011;11136;48.778;9.126;2023-11-18T01:21:52;5.30;;;3.50;;
21943;SDS011;11136;48.778;9.126;2023-11-18T01:24:18;4.07;;;3.35;;
21943;SDS011;11136;48.778;9.126;2023-11-18T01:26:43;5.53;;;3.47;;
21943;SDS011;11136;48.778;9.126;2023-11-18T01:29:10;5.68;;;3.60;;
21943;SDS011;11136;48.778;9.126;2023-11-18T01:31:35;3.13;;;2.67;;
21943;SDS011;11136;48.778;9.126;2023-11-18T01:34:00;3.63;;;2.65;;
21943;SDS011;11136;48.778;9.126;2023-11-18T01:36:26;5.10;;;2.97;;
21943;SDS011;11136;48.778;9.126;2023-11-18T01:38:52;4.82;;;3.40;;
21943;SDS011;11136;48.778;9.126;2023-11-18T01:41:20;3.60;;;3.20;;
21943;SDS011;11136;48.778;9.126;2023-11-18T01:43:45;4.18;;;3.30;;
21943;SDS011;11136;48.778;9.126;2023-11-18T01:46:11;3.25;;;2.80;;
21943;SDS011;11136;48.778;9.126;2023-11-18T01:48:39;3.38;;;3.08;;
21943;SDS011;11136;48.778;9.126;2023-11-18T01:51:05;3.92;;;2.95;;
21943;SDS011;11136;48.778;9.126;2023-11-18T01:53:32;7.38;;;2.15;;
21943;SDS011;11136;48.778;9.126;2023-11-18T01:56:01;6.65;;;3.45;;
21943;SDS011;11136;48.778;9.126;2023-11-18T01:58:27;7.72;;;3.05;;
21943;SDS011;11136;48.778;9.126;2023-11-18T02:00:57;3.72;;;2.83;;
21943;SDS011;11136;48.778;9.126;2023-11-18T02:03:22;3.08;;;2.35;;
21943;SDS011;11136;48.778;9.126;2023-11-18T02:05:48;5.15;;;2.40;;
21943;SDS011;11136;48.778;9.126;2023-11-18T02:08:13;4.50;;;2.53;;
21943;SDS011;11136;48.778;9.126;2023-11-18T02:10:49;3.47;;;2.17;;
21943;SDS011;11136;48.778;9.126;2023-11-18T02:13:23;4.03;;;3.15;;
21943;SDS011;11136;48.778;9.126;2023-11-18T02:15:53;3.92;;;3.13;;
21943;SDS011;11136;48.778;9.126;2023-11-18T02:18:22;6.82;;;2.70;;
21943;SDS011;11136;48.778;9.126;2023-11-18T02:20:52;4.53;;;2.67;;
21943;SDS011;11136;48.778;9.126;2023-11-18T02:23:19;6.07;;;2.65;;
21943;SDS011;11136;48.778;9.126;2023-11-18T02:25:47;2.75;;;2.47;;
21943;SDS011;11136;48.778;9.126;2023-11-18T02:28:13;4.88;;;2.75;;
21943;SDS011;11136;48.778;9.126;2023-11-18T02:30:39;3.00;;;2.65;;
21943;SDS011;11136;48.778;9.126;2023-11-18T02:38:26;3.00;;;2.70;;
21943;SDS011;11136;48.778;9.126;2023-11-18T02:41:01;3.15;;;2.40;;
21943;SDS011;11136;48.778;9.126;2023-11-18T02:43:33;3.45;;;2.78;;
21943;SDS011;11136;48.778;9.126;2023-11-18T02:46:02;5.30;;;2.72;;
21943;SDS011;11136;48.778;9.126;2023-11-18T02:48:30;2.78;;;2.10;;
21943;SDS011;11136;48.778;9.126;2023-11-18T02:50:57;5.72;;;2.17;;
21943;SDS011;11136;48.778;9.126;2023-11-18T02:53:24;2.40;;;2.17;;
21943;SDS011;11136;48.778;9.126;2023-11-18T02:55:49;3.78;;;2.22;;
21943;SDS011;11136;48.778;9.126;2023-11-18T02:58:17;4.65;;;2.53;;
21943;SDS011;11136;48.778;9.126;2023-11-18T03:00:42;2.70;;;2.47;;
21943;SDS011;11136;48.778;9.126;2023-11-18T03:03:10;2.40;;;2.20;;
21943;SDS011;11136;48.778;9.126;2023-11-18T03:05:36;2.72;;;2.13;;
21943;SDS011;11136;48.778;9.126;2023-11-18T03:08:04;3.15;;;2.50;;
21943;SDS011;11136;48.778;9.126;2023-11-18T03:10:31;3.15;;;2.60;;
21943;SDS011;11136;48.778;9.126;2023-11-18T03:12:59;2.40;;;2.20;;
21943;SDS011;11136;48.778;9.126;2023-11-18T03:15:26;2.75;;;2.08;;
21943;SDS011;11136;48.778;9.126;2023-11-18T03:17:52;2.47;;;2.00;;
21943;SDS011;11136;48.778;9.126;2023-11-18T03:20:18;2.72;;;2.13;;
21943;SDS011;11136;48.778;9.126;2023-11-18T03:22:48;2.13;;;1.92;;
21943;SDS011;11136;48.778;9.126;2023-11-18T03:25:15;5.00;;;2.05;;
21943;SDS011;11136;48.778;9.126;2023-11-18T03:27:42;4.28;;;2.15;;
21943;SDS011;11136;48.778;9.126;2023-11-18T03:30:08;3.35;;;1.90;;
21943;SDS011;11136;48.778;9.126;2023-11-18T03:32:34;2.83;;;2.30;;
21943;SDS011;11136;48.778;9.126;2023-11-18T03:35:02;3.47;;;2.25;;
21943;SDS011;11136;48.778;9.126;2023-11-18T03:37:36;4.05;;;2.30;;
21943;SDS011;11136;48.778;9.126;2023-11-18T03:40:09;3.45;;;2.00;;
21943;SDS011;11136;48.778;9.126;2023-11-18T03:42:36;2.20;;;1.53;;
21943;SDS011;11136;48.778;9.126;2023-11-18T03:45:02;3.28;;;2.17;;
21943;SDS011;11136;48.778;9.126;2023-11-18T03:47:28;5.47;;;2.35;;
21943;SDS011;11136;48.778;9.126;2023-11-18T03:49:55;5.15;;;2.15;;
21943;SDS011;11136;48.778;9.126;2023-11-18T03:52:20;3.35;;;1.98;;
21943;SDS011;11136;48.778;9.126;2023-11-18T03:54:46;3.08;;;1.80;;
21943;SDS011;11136;48.778;9.126;2023-11-18T03:57:11;4.13;;;1.98;;
21943;SDS011;11136;48.778;9.126;2023-11-18T03:59:38;2.65;;;2.10;;
21943;SDS011;11136;48.778;9.126;2023-11-18T04:02:04;5.97;;;2.80;;
21943;SDS011;11136;48.778;9.126;2023-11-18T04:04:29;3.83;;;2.28;;
21943;SDS011;11136;48.778;9.126;2023-11-18T04:06:55;3.83;;;2.40;;
21943;SDS011;11136;48.778;9.126;2023-11-18T04:09:20;6.10;;;2.28;;
21943;SDS011;11136;48.778;9.126;2023-11-18T04:11:46;2.33;;;2.00;;
21943;SDS011;11136;48.778;9.126;2023-11-18T04:14:11;3.33;;;2.40;;
21943;SDS011;11136;48.778;9.126;2023-11-18T04:16:37;3.08;;;1.95;;
21943;SDS011;11136;48.778;9.126;2023-11-18T04:19:05;3.45;;;2.63;;
21943;SDS011;11136;48.778;9.126;2023-11-18T04:21:31;2.83;;;2.30;;
21943;SDS011;11136;48.778;9.126;2023-11-18T04:23:56;6.53;;;1.65;;
21943;SDS011;11136;48.778;9.126;2023-11-18T04:26:23;3.88;;;2.05;;
21943;SDS011;11136;48.778;9.126;2023-11-18T04:28:49;1.95;;;1.70;;
21943;SDS011;11136;48.778;9.126;2023-11-18T04:31:15;2.05;;;1.63;;
21943;SDS011;11136;48.778;9.126;2023-11-18T04:33:40;3.72;;;1.88;;
21943;SDS011;11136;48.778;9.126;2023-11-18T04:36:06;2.63;;;2.03;;
21943;SDS011;11136;48.778;9.126;2023-11-18T04:38:35;3.10;;;1.90;;
21943;SDS011;11136;48.778;9.126;2023-11-18T04:41:01;3.75;;;2.25;;
21943;SDS011;11136;48.778;9.126;2023-11-18T04:43:28;4.55;;;2.00;;
21943;SDS011;11136;48.778;9.126;2023-11-18T04:45:55;2.45;;;1.92;;
21943;SDS011;11136;48.778;9.126;2023-11-18T04:48:20;3.47;;;2.13;;
21943;SDS011;11136;48.778;9.126;2023-11-18T04:50:46;2.22;;;2.03;;
21943;SDS011;11136;48.778;9.126;2023-11-18T04:53:11;2.22;;;1.90;;
21943;SDS011;11136;48.778;9.126;2023-11-18T04:55:37;2.13;;;1.92;;
21943;SDS011;11136;48.778;9.126;2023-11-18T04:58:04;2.13;;;1.75;;
21943;SDS011;11136;48.778;9.126;2023-11-18T05:00:31;1.90;;;1.70;;
21943;SDS011;11136;48.778;9.126;2023-11-18T05:02:57;2.35;;;2.10;;
21943;SDS011;11136;48.778;9.126;2023-11-18T05:05:23;2.05;;;1.75;;
21943;SDS011;11136;48.778;9.126;2023-11-18T05:07:48;4.60;;;1.80;;
21943;SDS011;11136;48.778;9.126;2023-11-18T05:10:13;3.78;;;2.00;;
21943;SDS011;11136;48.778;9.126;2023-11-18T05:12:39;2.00;;;1.63;;
21943;SDS011;11136;48.778;9.126;2023-11-18T05:15:08;2.85;;;2.30;;
21943;SDS011;11136;48.778;9.126;2023-11-18T05:17:35;2.00;;;1.80;;
21943;SDS011;11136;48.778;9.126;2023-11-18T05:20:02;2.00;;;1.70;;
21943;SDS011;11136;48.778;9.126;2023-11-18T05:22:28;2.25;;;1.88;;
21943;SDS011;11136;48.778;9.126;2023-11-18T05:24:53;4.03;;;2.10;;
21943;SDS011;11136;48.778;9.126;2023-11-18T05:27:19;2.75;;;2.20;;
21943;SDS011;11136;48.778;9.126;2023-11-18T05:29:44;2.35;;;2.10;;
21943;SDS011;11136;48.778;9.126;2023-11-18T05:32:13;3.65;;;2.10;;
21943;SDS011;11136;48.778;9.126;2023-11-18T05:34:38;2.80;;;2.08;;
21943;SDS011;11136;48.778;9.126;2023-11-18T05:37:04;3.10;;;2.05;;
21943;SDS011;11136;48.778;9.126;2023-11-18T05:39:29;3.20;;;2.30;;
21943;SDS011;11136;48.778;9.126;2023-11-18T05:41:58;2.53;;;2.30;;
21943;SDS011;11136;48.778;9.126;2023-11-18T05:44:24;3.75;;;2.40;;
21943;SDS011;11136;48.778;9.126;2023-11-18T05:46:58;3.20;;;2.40;;
21943;SDS011;11136;48.778;9.126;2023-11-18T05:49:23;2.45;;;2.15;;
21943;SDS011;11136;48.778;9.126;2023-11-18T05:51:49;2.88;;;2.38;;
21943;SDS011;11136;48.778;9.126;2023-11-18T05:54:15;3.13;;;1.90;;
21943;SDS011;11136;48.778;9.126;2023-11-18T05:56:40;3.13;;;2.28;;
21943;SDS011;11136;48.778;9.126;2023-11-18T05:59:06;2.92;;;2.42;;
21943;SDS011;11136;48.778;9.126;2023-11-18T06:01:33;3.45;;;2.13;;
21943;SDS011;11136;48.778;9.126;2023-11-18T06:03:59;2.38;;;1.92;;
21943;SDS011;11136;48.778;9.126;2023-11-18T06:06:25;2.90;;;2.38;;
21943;SDS011;11136;48.778;9.126;2023-11-18T06:08:51;2.90;;;2.40;;
21943;SDS011;11136;48.778;9.126;2023-11-18T06:11:18;3.75;;;2.42;;
21943;SDS011;11136;48.778;9.126;2023-11-18T06:13:50;2.05;;;1.85;;
21943;SDS011;11136;48.778;9.126;2023-11-18T06:16:23;4.47;;;2.13;;
21943;SDS011;11136;48.778;9.126;2023-11-18T06:18:51;3.88;;;2.00;;
21943;SDS011;11136;48.778;9.126;2023-11-18T06:21:27;3.80;;;1.73;;
21943;SDS011;11136;48.778;9.126;2023-11-18T06:23:56;1.73;;;1.40;;
21943;SDS011;11136;48.778;9.126;2023-11-18T06:26:23;4.82;;;1.88;;
21943;SDS011;11136;48.778;9.126;2023-11-18T06:28:51;1.90;;;1.70;;
21943;SDS011;11136;48.778;9.126;2023-11-18T06:31:18;2.85;;;1.95;;
21943;SDS011;11136;48.778;9.126;2023-11-18T06:33:45;4.10;;;2.00;;
21943;SDS011;11136;48.778;9.126;2023-11-18T06:38:42;3.45;;;2.65;;
21943;SDS011;11136;48.778;9.126;2023-11-18T06:41:09;3.60;;;2.25;;
21943;SDS011;11136;48.778;9.126;2023-11-18T06:43:39;6.70;;;2.58;;
21943;SDS011;11136;48.778;9.126;2023-11-18T06:46:20;7.75;;;3.28;;
21943;SDS011;11136;48.778;9.126;2023-11-18T06:48:47;2.40;;;1.77;;
21943;SDS011;11136;48.778;9.126;2023-11-18T06:51:14;2.85;;;2.38;;
21943;SDS011;11136;48.778;9.126;2023-11-18T06:53:41;2.65;;;2.17;;
21943;SDS011;11136;48.778;9.126;2023-11-18T06:56:06;3.78;;;3.05;;
21943;SDS011;11136;48.778;9.126;2023-11-18T06:58:32;3.83;;;2.92;;
21943;SDS011;11136;48.778;9.126;2023-11-18T07:00:57;3.95;;;2.78;;
21943;SDS011;11136;48.778;9.126;2023-11-18T07:03:23;3.85;;;2.53;;
21943;SDS011;11136;48.778;9.126;2023-11-18T07:05:48;5.10;;;2.92;;
21943;SDS011;11136;48.778;9.126;2023-11-18T07:08:14;5.03;;;3.40;;
21943;SDS011;11136;48.778;9.126;2023-11-18T07:10:40;6.47;;;3.40;;
21943;SDS011;11136;48.778;9.126;2023-11-18T07:13:05;5.32;;;3.80;;
21943;SDS011;11136;48.778;9.126;2023-11-18T07:15:33;5.40;;;3.88;;
21943;SDS011;11136;48.778;9.126;2023-11-18T07:17:59;5.97;;;3.83;;
21943;SDS011;11136;48.778;9.126;2023-11-18T07:20:24;6.18;;;3.97;;
21943;SDS011;11136;48.778;9.126;2023-11-18T07:22:49;6.63;;;3.80;;
21943;SDS011;11136;48.778;9.126;2023-11-18T07:25:16;4.00;;;2.70;;
21943;SDS011;11136;48.778;9.126;2023-11-18T07:27:41;4.90;;;3.15;;
21943;SDS011;11136;48.778;9.126;2023-11-18T07:30:06;7.78;;;3.83;;
21943;SDS011;11136;48.778;9.126;2023-11-18T07:32:35;4.65;;;3.60;;
21943;SDS011;11136;48.778;9.126;2023-11-18T07:35:01;5.47;;;4.28;;
21943;SDS011;11136;48.778;9.126;2023-11-18T07:37:26;5.28;;;3.65;;
21943;SDS011;11136;48.778;9.126;2023-11-18T07:39:51;4.20;;;3.45;;
21943;SDS011;11136;48.778;9.126;2023-11-18T07:42:17;7.95;;;3.42;;
21943;SDS011;11136;48.778;9.126;2023-11-18T07:44:43;8.15;;;4.00;;
21943;SDS011;11136;48.778;9.126;2023-11-18T07:47:08;4.70;;;3.60;;
21943;SDS011;11136;48.778;9.126;2023-11-18T07:49:34;7.13;;;3.40;;
21943;SDS011;11136;48.778;9.126;2023-11-18T07:52:01;6.57;;;3.80;;
21943;SDS011;11136;48.778;9.126;2023-11-18T07:54:27;4.38;;;3.55;;
21943;SDS011;11136;48.778;9.126;2023-11-18T07:56:52;4.63;;;3.00;;
21943;SDS011;11136;48.778;9.126;2023-11-18T07:59:19;7.65;;;3.40;;
21943;SDS011;11136;48.778;9.126;2023-11-18T08:01:44;5.47;;;2.90;;
21943;SDS011;11136;48.778;9.126;2023-11-18T08:04:11;5.60;;;3.08;;
21943;SDS011;11136;48.778;9.126;2023-11-18T08:06:38;6.15;;;3.65;;
21943;SDS011;11136;48.778;9.126;2023-11-18T08:09:04;4.78;;;3.47;;
21943;SDS011;11136;48.778;9.126;2023-11-18T08:11:29;4.13;;;3.05;;
21943;SDS011;11136;48.778;9.126;2023-11-18T08:13:55;5.93;;;3.17;;
21943;SDS011;11136;48.778;9.126;2023-11-18T08:16:20;5.60;;;2.90;;
21943;SDS011;11136;48.778;9.126;2023-11-18T08:18:47;5.10;;;2.88;;
21943;SDS011;11136;48.778;9.126;2023-11-18T08:21:12;3.85;;;2.70;;
21943;SDS011;11136;48.778;9.126;2023-11-18T08:23:38;3.38;;;2.58;;
21943;SDS011;11136;48.778;9.126;2023-11-18T08:26:04;5.30;;;2.60;;
21943;SDS011;11136;48.778;9.126;2023-11-18T08:28:30;3.70;;;2.78;;
21943;SDS011;11136;48.778;9.126;2023-11-18T08:30:56;6.05;;;2.75;;
21943;SDS011;11136;48.778;9.126;2023-11-18T08:33:21;5.07;;;2.60;;
21943;SDS011;11136;48.778;9.126;2023-11-18T08:35:50;3.97;;;2.72;;
21943;SDS011;11136;48.778;9.126;2023-11-18T08:38:15;9.05;;;3.13;;
21943;SDS011;11136;48.778;9.126;2023-11-18T08:40:41;3.03;;;2.67;;
21943;SDS011;11136;48.778;9.126;2023-11-18T08:43:07;4.47;;;3.00;;
21943;SDS011;11136;48.778;9.126;2023-11-18T08:45:33;4.43;;;2.53;;
21943;SDS011;11136;48.778;9.126;2023-11-18T08:48:00;4.50;;;2.63;;
21943;SDS011;11136;48.778;9.126;2023-11-18T08:50:27;2.70;;;2.15;;
21943;SDS011;11136;48.778;9.126;2023-11-18T08:52:54;3.53;;;2.22;;
21943;SDS011;11136;48.778;9.126;2023-11-18T08:55:23;5.28;;;2.35;;
21943;SDS011;11136;48.778;9.126;2023-11-18T08:58:12;2.40;;;1.90;;
21943;SDS011;11136;48.778;9.126;2023-11-18T09:00:43;3.85;;;2.28;;
21943;SDS011;11136;48.778;9.126;2023-11-18T09:03:19;6.50;;;2.42;;
21943;SDS011;11136;48.778;9.126;2023-11-18T09:06:02;6.57;;;2.58;;
21943;SDS011;11136;48.778;9.126;2023-11-18T09:08:31;2.25;;;2.05;;
21943;SDS011;11136;48.778;9.126;2023-11-18T09:11:08;3.15;;;1.73;;
21943;SDS011;11136;48.778;9.126;2023-11-18T09:13:45;2.42;;;1.60;;
21943;SDS011;11136;48.778;9.126;2023-11-18T09:16:14;3.45;;;2.03;;
21943;SDS011;11136;48.778;9.126;2023-11-18T09:18:42;4.60;;;1.92;;
21943;SDS011;11136;48.778;9.126;2023-11-18T09:21:10;4.82;;;1.98;;
21943;SDS011;11136;48.778;9.126;2023-11-18T09:23:40;5.40;;;1.90;;
21943;SDS011;11136;48.778;9.126;2023-11-18T09:26:06;3.55;;;1.63;;
21943;SDS011;11136;48.778;9.126;2023-11-18T09:28:34;3.28;;;1.85;;
21943;SDS011;11136;48.778;9.126;2023-11-18T09:31:00;2.15;;;1.55;;
21943;SDS011;11136;48.778;9.126;2023-11-18T09:33:28;3.38;;;2.03;;
21943;SDS011;11136;48.778;9.126;2023-11-18T09:36:01;3.47;;;2.00;;
21943;SDS011;11136;48.778;9.126;2023-11-18T09:38:35;2.20;;;1.60;;
21943;SDS011;11136;48.778;9.126;2023-11-18T09:41:02;3.88;;;1.70;;
21943;SDS011;11136;48.778;9.126;2023-11-18T09:43:29;1.88;;;1.30;;
21943;SDS011;11136;48.778;9.126;2023-11-18T09:46:00;1.90;;;1.27;;
21943;SDS011;11136;48.778;9.126;2023-11-18T09:48:38;3.03;;;1.27;;
21943;SDS011;11136;48.778;9.126;2023-11-18T09:51:21;3.70;;;1.60;;
21943;SDS011;11136;48.778;9.126;2023-11-18T09:53:51;2.90;;;1.80;;
21943;SDS011;11136;48.778;9.126;2023-11-18T09:56:31;2.55;;;1.17;;
21943;SDS011;11136;48.778;9.126;2023-11-18T09:59:18;5.68;;;1.33;;
21943;SDS011;11136;48.778;9.126;2023-11-18T10:01:53;3.15;;;1.27;;
21943;SDS011;11136;48.778;9.126;2023-11-18T10:04:23;1.05;;;0.80;;
21943;SDS011;11136;48.778;9.126;2023-11-18T10:06:52;1.25;;;1.02;;
21943;SDS011;11136;48.778;9.126;2023-11-18T10:09:22;1.38;;;1.10;;
21943;SDS011;11136;48.778;9.126;2023-11-18T10:12:02;4.03;;;1.20;;
21943;SDS011;11136;48.778;9.126;2023-11-18T10:14:30;2.33;;;1.40;;
21943;SDS011;11136;48.778;9.126;2023-11-18T10:17:06;1.17;;;1.05;;
21943;SDS011;11136;48.778;9.126;2023-11-18T10:22:25;4.05;;;1.00;;
21943;SDS011;11136;48.778;9.126;2023-11-18T10:24:52;1.95;;;1.27;;
21943;SDS011;11136;48.778;9.126;2023-11-18T10:27:23;1.83;;;1.27;;
21943;SDS011;11136;48.778;9.126;2023-11-18T10:29:56;2.53;;;1.35;;
21943;SDS011;11136;48.778;9.126;2023-11-18T10:32:44;2.20;;;1.30;;
21943;SDS011;11136;48.778;9.126;2023-11-18T10:35:21;3.40;;;1.20;;
21943;SDS011;11136;48.778;9.126;2023-11-18T10:37:46;3.85;;;1.15;;
21943;SDS011;11136;48.778;9.126;2023-11-18T10:40:12;2.60;;;1.08;;
21943;SDS011;11136;48.778;9.126;2023-11-18T10:42:42;1.38;;;1.13;;
21943;SDS011;11136;48.778;9.126;2023-11-18T10:45:13;1.70;;;1.20;;
21943;SDS011;11136;48.778;9.126;2023-11-18T10:47:49;2.58;;;1.00;;
21943;SDS011;11136;48.778;9.126;2023-11-18T10:50:15;1.70;;;0.70;;
21943;SDS011;11136;48.778;9.126;2023-11-18T10:52:44;2.10;;;1.10;;
21943;SDS011;11136;48.778;9.126;2023-11-18T10:55:11;1.20;;;0.80;;
21943;SDS011;11136;48.778;9.126;2023-11-18T10:57:36;2.72;;;0.68;;
21943;SDS011;11136;48.778;9.126;2023-11-18T11:02:38;1.60;;;1.00;;
21943;SDS011;11136;48.778;9.126;2023-11-18T11:05:07;1.63;;;0.93;;
21943;SDS011;11136;48.778;9.126;2023-11-18T11:07:33;1.27;;;0.73;;
21943;SDS011;11136;48.778;9.126;2023-11-18T11:10:01;0.98;;;0.70;;
21943;SDS011;11136;48.778;9.126;2023-11-18T11:12:31;1.63;;;0.70;;
21943;SDS011;11136;48.778;9.126;2023-11-18T11:15:12;0.82;;;0.80;;
21943;SDS011;11136;48.778;9.126;2023-11-18T11:17:53;3.65;;;0.70;;
21943;SDS011;11136;48.778;9.126;2023-11-18T11:20:33;3.97;;;0.95;;
21943;SDS011;11136;48.778;9.126;2023-11-18T11:31:42;2.67;;;1.20;;
21943;SDS011;11136;48.778;9.126;2023-11-18T11:34:17;2.17;;;1.13;;
21943;SDS011;11136;48.778;9.126;2023-11-18T11:36:48;4.45;;;1.63;;
21943;SDS011;11136;48.778;9.126;2023-11-18T11:39:16;2.65;;;1.05;;
21943;SDS011;11136;48.778;9.126;2023-11-18T11:41:51;1.30;;;0.90;;
21943;SDS011;11136;48.778;9.126;2023-11-18T11:44:19;3.22;;;1.27;;
21943;SDS011;11136;48.778;9.126;2023-11-18T11:46:47;1.60;;;0.80;;
21943;SDS011;11136;48.778;9.126;2023-11-18T11:49:19;2.78;;;0.90;;
21943;SDS011;11136;48.778;9.126;2023-11-18T11:51:47;0.80;;;0.80;;
21943;SDS011;11136;48.778;9.126;2023-11-18T11:54:23;1.77;;;0.90;;
21943;SDS011;11136;48.778;9.126;2023-11-18T11:56:55;3.60;;;0.70;;
21943;SDS011;11136;48.778;9.126;2023-11-18T12:02:03;1.05;;;0.77;;
21943;SDS011;11136;48.778;9.126;2023-11-18T12:04:34;3.95;;;0.95;;
21943;SDS011;11136;48.778;9.126;2023-11-18T12:07:03;2.13;;;0.80;;
21943;SDS011;11136;48.778;9.126;2023-11-18T12:09:30;1.27;;;0.90;;
21943;SDS011;11136;48.778;9.126;2023-11-18T12:12:02;4.10;;;1.23;;
21943;SDS011;11136;48.778;9.126;2023-11-18T12:14:29;2.50;;;0.70;;
21943;SDS011;11136;48.778;9.126;2023-11-18T12:19:46;3.30;;;1.35;;
21943;SDS011;11136;48.778;9.126;2023-11-18T12:22:14;1.83;;;0.82;;
21943;SDS011;11136;48.778;9.126;2023-11-18T12:33:01;1.55;;;1.25;;
21943;SDS011;11136;48.778;9.126;2023-11-18T12:35:35;1.77;;;0.90;;
21943;SDS011;11136;48.778;9.126;2023-11-18T12:38:18;3.45;;;1.17;;
21943;SDS011;11136;48.778;9.126;2023-11-18T12:41:00;1.90;;;1.15;;
21943;SDS011;11136;48.778;9.126;2023-11-18T12:43:48;2.92;;;0.90;;
21943;SDS011;11136;48.778;9.126;2023-11-18T12:49:06;4.55;;;1.30;;
21943;SDS011;11136;48.778;9.126;2023-11-18T12:51:40;1.10;;;1.00;;
21943;SDS011;11136;48.778;9.126;2023-11-18T12:54:08;2.33;;;1.13;;
21943;SDS011;11136;48.778;9.126;2023-11-18T12:56:36;1.90;;;1.10;;
21943;SDS011;11136;48.778;9.126;2023-11-18T12:59:09;2.38;;;0.93;;
21943;SDS011;11136;48.778;9.126;2023-11-18T13:01:34;3.25;;;1.00;;
21943;SDS011;11136;48.778;9.126;2023-11-18T13:04:02;4.35;;;1.10;;
21943;SDS011;11136;48.778;9.126;2023-11-18T13:06:28;2.67;;;1.10;;
21943;SDS011;11136;48.778;9.126;2023-11-18T13:08:54;3.15;;;1.42;;
21943;SDS011;11136;48.778;9.126;2023-11-18T13:11:22;5.82;;;1.77;;
21943;SDS011;11136;48.778;9.126;2023-11-18T13:13:49;4.13;;;1.10;;
21943;SDS011;11136;48.778;9.126;2023-11-18T13:16:16;3.80;;;1.17;;
21943;SDS011;11136;48.778;9.126;2023-11-18T13:18:46;2.35;;;1.13;;
21943;SDS011;11136;48.778;9.126;2023-11-18T13:21:16;4.82;;;1.20;;
21943;SDS011;11136;48.778;9.126;2023-11-18T13:23:47;2.97;;;1.50;;
21943;SDS011;11136;48.778;9.126;2023-11-18T13:26:14;2.55;;;1.42;;
21943;SDS011;11136;48.778;9.126;2023-11-18T13:28:40;3.90;;;1.40;;
21943;SDS011;11136;48.778;9.126;2023-11-18T13:31:06;2.42;;;1.30;;
21943;SDS011;11136;48.778;9.126;2023-11-18T13:33:43;3.95;;;1.17;;
21943;SDS011;11136;48.778;9.126;2023-11-18T13:36:09;4.20;;;1.70;;
21943;SDS011;11136;48.778;9.126;2023-11-18T13:38:36;5.20;;;1.75;;
21943;SDS011;11136;48.778;9.126;2023-11-18T13:41:02;3.45;;;1.48;;
21943;SDS011;11136;48.778;9.126;2023-11-18T13:43:40;4.38;;;1.10;;
21943;SDS011;11136;48.778;9.126;2023-11-18T13:46:11;3.05;;;1.40;;
21943;SDS011;11136;48.778;9.126;2023-11-18T13:48:38;2.95;;;1.38;;
21943;SDS011;11136;48.778;9.126;2023-11-18T13:51:07;2.08;;;1.20;;
21943;SDS011;11136;48.778;9.126;2023-11-18T13:53:37;3.72;;;1.80;;
21943;SDS011;11136;48.778;9.126;2023-11-18T13:56:03;7.15;;;1.60;;
21943;SDS011;11136;48.778;9.126;2023-11-18T13:58:29;3.38;;;1.38;;
21943;SDS011;11136;48.778;9.126;2023-11-18T14:00:55;2.67;;;1.67;;
21943;SDS011;11136;48.778;9.126;2023-11-18T14:03:21;2.75;;;1.80;;
21943;SDS011;11136;48.778;9.126;2023-11-18T14:05:50;2.20;;;1.65;;
21943;SDS011;11136;48.778;9.126;2023-11-18T14:08:17;2.10;;;1.52;;
21943;SDS011;11136;48.778;9.126;2023-11-18T14:10:44;2.83;;;1.80;;
21943;SDS011;11136;48.778;9.126;2023-11-18T14:13:10;1.85;;;1.65;;
21943;SDS011;11136;48.778;9.126;2023-11-18T14:15:41;2.67;;;1.80;;
21943;SDS011;11136;48.778;9.126;2023-11-18T14:18:07;1.98;;;1.30;;
21943;SDS011;11136;48.778;9.126;2023-11-18T14:20:34;3.92;;;2.17;;
21943;SDS011;11136;48.778;9.126;2023-11-18T14:23:00;3.30;;;1.77;;
21943;SDS011;11136;48.778;9.126;2023-11-18T14:25:28;4.15;;;1.92;;
21943;SDS011;11136;48.778;9.126;2023-11-18T14:27:54;3.65;;;1.90;;
21943;SDS011;11136;48.778;9.126;2023-11-18T14:30:20;3.72;;;1.73;;
21943;SDS011;11136;48.778;9.126;2023-11-18T14:32:49;6.53;;;2.35;;
21943;SDS011;11136;48.778;9.126;2023-11-18T14:35:15;3.10;;;2.05;;
21943;SDS011;11136;48.778;9.126;2023-11-18T14:37:42;4.03;;;1.70;;
21943;SDS011;11136;48.778;9.126;2023-11-18T14:40:14;5.07;;;1.90;;
21943;SDS011;11136;48.778;9.126;2023-11-18T14:43:02;3.35;;;1.98;;
21943;SDS011;11136;48.778;9.126;2023-11-18T14:45:26;4.43;;;1.75;;
21943;SDS011;11136;48.778;9.126;2023-11-18T14:47:52;2.78;;;1.95;;
21943;SDS011;11136;48.778;9.126;2023-11-18T14:50:20;3.33;;;1.83;;
21943;SDS011;11136;48.778;9.126;2023-11-18T14:52:47;4.68;;;2.00;;
21943;SDS011;11136;48.778;9.126;2023-11-18T14:55:13;1.73;;;1.63;;
21943;SDS011;11136;48.778;9.126;2023-11-18T14:57:39;2.33;;;1.73;;
21943;SDS011;11136;48.778;9.126;2023-11-18T15:00:06;3.25;;;2.17;;
21943;SDS011;11136;48.778;9.126;2023-11-18T15:02:36;7.70;;;2.60;;
21943;SDS011;11136;48.778;9.126;2023-11-18T15:05:01;4.15;;;2.22;;
21943;SDS011;11136;48.778;9.126;2023-11-18T15:07:29;3.35;;;2.45;;
21943;SDS011;11136;48.778;9.126;2023-11-18T15:09:55;3.40;;;2.22;;
21943;SDS011;11136;48.778;9.126;2023-11-18T15:12:20;5.63;;;2.20;;
21943;SDS011;11136;48.778;9.126;2023-11-18T15:14:45;4.30;;;1.98;;
21943;SDS011;11136;48.778;9.126;2023-11-18T15:17:11;2.97;;;2.30;;
21943;SDS011;11136;48.778;9.126;2023-11-18T15:19:38;5.25;;;2.60;;
21943;SDS011;11136;48.778;9.126;2023-11-18T15:22:04;3.53;;;2.28;;
21943;SDS011;11136;48.778;9.126;2023-11-18T15:24:29;3.03;;;2.15;;
21943;SDS011;11136;48.778;9.126;2023-11-18T15:26:57;2.90;;;2.10;;
21943;SDS011;11136;48.778;9.126;2023-11-18T15:29:24;4.65;;;2.45;;
21943;SDS011;11136;48.778;9.126;2023-11-18T15:31:56;4.45;;;2.30;;